sensor_id;sensor_type;location;lat;lon;timestamp;P1;durP1;ratioP1;P2;durP2;ratioP2
25123;SDS011;13104;51.030;4.686;2023-03-14T00:01:52;8.30;;;1.45;;
25123;SDS011;13104;51.030;4.686;2023-03-14T00:04:18;9.80;;;1.77;;
25123;SDS011;13104;51.030;4.686;2023-03-14T00:06:44;7.20;;;1.65;;
25123;SDS011;13104;51.030;4.686;2023-03-14T00:09:12;11.07;;;2.03;;
25123;SDS011;13104;51.030;4.686;2023-03-14T00:11:38;7.47;;;1.95;;
25123;SDS011;13104;51.030;4.686;2023-03-14T00:14:04;8.15;;;1.40;;
25123;SDS011;13104;51.030;4.686;2023-03-14T00:16:30;7.45;;;1.90;;
25123;SDS011;13104;51.030;4.686;2023-03-14T00:18:58;7.00;;;1.58;;
25123;SDS011;13104;51.030;4.686;2023-03-14T00:21:24;9.23;;;1.63;;
25123;SDS011;13104;51.030;4.686;2023-03-14T00:23:50;6.68;;;1.45;;
25123;SDS011;13104;51.030;4.686;2023-03-14T00:26:18;6.32;;;1.30;;
25123;SDS011;13104;51.030;4.686;2023-03-14T00:28:44;11.32;;;1.90;;
25123;SDS011;13104;51.030;4.686;2023-03-14T00:31:11;6.10;;;1.40;;
25123;SDS011;13104;51.030;4.686;2023-03-14T00:33:38;7.47;;;1.85;;
25123;SDS011;13104;51.030;4.686;2023-03-14T00:36:05;7.35;;;1.77;;
25123;SDS011;13104;51.030;4.686;2023-03-14T00:38:34;9.65;;;1.90;;
25123;SDS011;13104;51.030;4.686;2023-03-14T00:41:04;9.77;;;1.80;;
25123;SDS011;13104;51.030;4.686;2023-03-14T00:43:31;6.45;;;2.03;;
25123;SDS011;13104;51.030;4.686;2023-03-14T00:45:57;10.90;;;2.47;;
25123;SDS011;13104;51.030;4.686;2023-03-14T00:48:23;14.32;;;2.50;;
25123;SDS011;13104;51.030;4.686;2023-03-14T00:50:49;15.57;;;2.50;;
25123;SDS011;13104;51.030;4.686;2023-03-14T00:53:16;12.45;;;2.35;;
25123;SDS011;13104;51.030;4.686;2023-03-14T00:55:42;8.93;;;1.77;;
25123;SDS011;13104;51.030;4.686;2023-03-14T00:58:13;13.38;;;2.30;;
25123;SDS011;13104;51.030;4.686;2023-03-14T01:00:39;13.95;;;2.95;;
25123;SDS011;13104;51.030;4.686;2023-03-14T01:03:06;10.27;;;1.95;;
25123;SDS011;13104;51.030;4.686;2023-03-14T01:05:32;11.63;;;1.75;;
25123;SDS011;13104;51.030;4.686;2023-03-14T01:07:58;16.60;;;2.60;;
25123;SDS011;13104;51.030;4.686;2023-03-14T01:10:24;11.05;;;1.90;;
25123;SDS011;13104;51.030;4.686;2023-03-14T01:12:50;11.55;;;2.20;;
25123;SDS011;13104;51.030;4.686;2023-03-14T01:15:16;11.90;;;2.33;;
25123;SDS011;13104;51.030;4.686;2023-03-14T01:17:43;10.85;;;2.55;;
25123;SDS011;13104;51.030;4.686;2023-03-14T01:20:10;12.82;;;2.50;;
25123;SDS011;13104;51.030;4.686;2023-03-14T01:22:37;12.05;;;2.28;;
25123;SDS011;13104;51.030;4.686;2023-03-14T01:25:08;15.15;;;2.20;;
25123;SDS011;13104;51.030;4.686;2023-03-14T01:27:35;15.90;;;2.97;;
25123;SDS011;13104;51.030;4.686;2023-03-14T01:30:01;12.70;;;2.58;;
25123;SDS011;13104;51.030;4.686;2023-03-14T01:32:27;12.45;;;2.80;;
25123;SDS011;13104;51.030;4.686;2023-03-14T01:34:53;14.93;;;2.15;;
25123;SDS011;13104;51.030;4.686;2023-03-14T01:37:19;16.17;;;2.78;;
25123;SDS011;13104;51.030;4.686;2023-03-14T01:39:46;10.07;;;2.60;;
25123;SDS011;13104;51.030;4.686;2023-03-14T01:42:12;15.65;;;2.50;;
25123;SDS011;13104;51.030;4.686;2023-03-14T01:44:52;13.80;;;2.22;;
25123;SDS011;13104;51.030;4.686;2023-03-14T01:47:18;11.20;;;2.55;;
25123;SDS011;13104;51.030;4.686;2023-03-14T01:49:48;13.60;;;2.40;;
25123;SDS011;13104;51.030;4.686;2023-03-14T01:54:43;10.23;;;2.20;;
25123;SDS011;13104;51.030;4.686;2023-03-14T01:57:16;14.50;;;2.88;;
25123;SDS011;13104;51.030;4.686;2023-03-14T01:59:46;16.27;;;2.88;;
25123;SDS011;13104;51.030;4.686;2023-03-14T02:02:12;13.15;;;2.38;;
25123;SDS011;13104;51.030;4.686;2023-03-14T02:04:39;8.93;;;2.78;;
25123;SDS011;13104;51.030;4.686;2023-03-14T02:09:32;15.60;;;2.60;;
25123;SDS011;13104;51.030;4.686;2023-03-14T02:11:58;10.23;;;2.40;;
25123;SDS011;13104;51.030;4.686;2023-03-14T02:14:27;12.32;;;2.42;;
25123;SDS011;13104;51.030;4.686;2023-03-14T02:16:54;15.95;;;2.15;;
25123;SDS011;13104;51.030;4.686;2023-03-14T02:19:21;8.48;;;1.95;;
25123;SDS011;13104;51.030;4.686;2023-03-14T02:22:02;11.65;;;2.13;;
25123;SDS011;13104;51.030;4.686;2023-03-14T02:24:33;7.88;;;1.75;;
25123;SDS011;13104;51.030;4.686;2023-03-14T02:27:03;8.75;;;1.83;;
25123;SDS011;13104;51.030;4.686;2023-03-14T02:29:29;8.60;;;1.67;;
25123;SDS011;13104;51.030;4.686;2023-03-14T02:31:57;10.43;;;2.00;;
25123;SDS011;13104;51.030;4.686;2023-03-14T02:34:23;7.07;;;1.40;;
25123;SDS011;13104;51.030;4.686;2023-03-14T02:36:50;9.15;;;1.60;;
25123;SDS011;13104;51.030;4.686;2023-03-14T02:39:21;6.20;;;1.48;;
25123;SDS011;13104;51.030;4.686;2023-03-14T02:41:50;5.40;;;1.10;;
25123;SDS011;13104;51.030;4.686;2023-03-14T02:44:17;5.80;;;1.48;;
25123;SDS011;13104;51.030;4.686;2023-03-14T02:46:43;6.93;;;1.15;;
25123;SDS011;13104;51.030;4.686;2023-03-14T02:49:10;2.22;;;1.13;;
25123;SDS011;13104;51.030;4.686;2023-03-14T02:51:37;4.45;;;1.25;;
25123;SDS011;13104;51.030;4.686;2023-03-14T02:54:05;2.58;;;0.80;;
25123;SDS011;13104;51.030;4.686;2023-03-14T02:56:31;5.38;;;1.23;;
25123;SDS011;13104;51.030;4.686;2023-03-14T02:58:57;3.88;;;1.05;;
25123;SDS011;13104;51.030;4.686;2023-03-14T03:01:24;5.53;;;1.02;;
25123;SDS011;13104;51.030;4.686;2023-03-14T03:03:50;2.88;;;1.08;;
25123;SDS011;13104;51.030;4.686;2023-03-14T03:06:16;4.75;;;1.10;;
25123;SDS011;13104;51.030;4.686;2023-03-14T03:08:42;4.45;;;1.30;;
25123;SDS011;13104;51.030;4.686;2023-03-14T03:11:09;6.47;;;1.33;;
25123;SDS011;13104;51.030;4.686;2023-03-14T03:13:35;5.95;;;1.15;;
25123;SDS011;13104;51.030;4.686;2023-03-14T03:16:01;5.30;;;1.30;;
25123;SDS011;13104;51.030;4.686;2023-03-14T03:18:27;10.75;;;1.55;;
25123;SDS011;13104;51.030;4.686;2023-03-14T03:20:54;2.65;;;1.17;;
25123;SDS011;13104;51.030;4.686;2023-03-14T03:23:20;4.45;;;1.23;;
25123;SDS011;13104;51.030;4.686;2023-03-14T03:25:50;10.57;;;1.85;;
25123;SDS011;13104;51.030;4.686;2023-03-14T03:28:16;4.10;;;1.17;;
25123;SDS011;13104;51.030;4.686;2023-03-14T03:30:43;9.57;;;1.58;;
25123;SDS011;13104;51.030;4.686;2023-03-14T03:33:09;6.22;;;1.73;;
25123;SDS011;13104;51.030;4.686;2023-03-14T03:35:41;7.13;;;1.42;;
25123;SDS011;13104;51.030;4.686;2023-03-14T03:38:07;6.25;;;1.70;;
25123;SDS011;13104;51.030;4.686;2023-03-14T03:40:33;4.65;;;1.75;;
25123;SDS011;13104;51.030;4.686;2023-03-14T03:43:00;6.50;;;1.48;;
25123;SDS011;13104;51.030;4.686;2023-03-14T03:45:26;11.00;;;1.95;;
25123;SDS011;13104;51.030;4.686;2023-03-14T03:47:52;8.23;;;1.73;;
25123;SDS011;13104;51.030;4.686;2023-03-14T03:50:18;9.23;;;1.80;;
25123;SDS011;13104;51.030;4.686;2023-03-14T03:52:45;11.30;;;2.50;;
25123;SDS011;13104;51.030;4.686;2023-03-14T03:55:11;10.68;;;2.00;;
25123;SDS011;13104;51.030;4.686;2023-03-14T03:57:37;7.70;;;1.80;;
25123;SDS011;13104;51.030;4.686;2023-03-14T04:00:03;10.30;;;2.28;;
25123;SDS011;13104;51.030;4.686;2023-03-14T04:02:31;7.55;;;1.85;;
25123;SDS011;13104;51.030;4.686;2023-03-14T04:04:57;6.50;;;1.80;;
25123;SDS011;13104;51.030;4.686;2023-03-14T04:07:23;11.60;;;2.10;;
25123;SDS011;13104;51.030;4.686;2023-03-14T04:09:49;10.23;;;2.40;;
25123;SDS011;13104;51.030;4.686;2023-03-14T04:12:15;13.27;;;2.35;;
25123;SDS011;13104;51.030;4.686;2023-03-14T04:14:42;14.05;;;2.33;;
25123;SDS011;13104;51.030;4.686;2023-03-14T04:17:08;6.35;;;2.00;;
25123;SDS011;13104;51.030;4.686;2023-03-14T04:19:34;15.20;;;2.42;;
25123;SDS011;13104;51.030;4.686;2023-03-14T04:22:00;11.93;;;1.98;;
25123;SDS011;13104;51.030;4.686;2023-03-14T04:24:26;10.45;;;2.47;;
25123;SDS011;13104;51.030;4.686;2023-03-14T04:26:53;13.88;;;2.30;;
25123;SDS011;13104;51.030;4.686;2023-03-14T04:29:19;8.25;;;2.40;;
25123;SDS011;13104;51.030;4.686;2023-03-14T04:31:45;9.65;;;2.45;;
25123;SDS011;13104;51.030;4.686;2023-03-14T04:34:11;14.98;;;2.80;;
25123;SDS011;13104;51.030;4.686;2023-03-14T04:36:37;9.85;;;2.63;;
25123;SDS011;13104;51.030;4.686;2023-03-14T04:39:04;7.60;;;2.08;;
25123;SDS011;13104;51.030;4.686;2023-03-14T04:41:30;7.47;;;2.45;;
25123;SDS011;13104;51.030;4.686;2023-03-14T04:43:57;14.57;;;2.65;;
25123;SDS011;13104;51.030;4.686;2023-03-14T04:46:23;8.90;;;2.53;;
25123;SDS011;13104;51.030;4.686;2023-03-14T04:48:49;8.80;;;2.20;;
25123;SDS011;13104;51.030;4.686;2023-03-14T04:51:15;9.10;;;3.00;;
25123;SDS011;13104;51.030;4.686;2023-03-14T04:53:41;10.23;;;2.90;;
25123;SDS011;13104;51.030;4.686;2023-03-14T04:56:07;8.80;;;2.88;;
25123;SDS011;13104;51.030;4.686;2023-03-14T04:58:33;10.75;;;3.53;;
25123;SDS011;13104;51.030;4.686;2023-03-14T05:01:03;8.23;;;2.63;;
25123;SDS011;13104;51.030;4.686;2023-03-14T05:03:29;10.55;;;3.45;;
25123;SDS011;13104;51.030;4.686;2023-03-14T05:05:55;9.10;;;3.17;;
25123;SDS011;13104;51.030;4.686;2023-03-14T05:08:23;7.03;;;3.42;;
25123;SDS011;13104;51.030;4.686;2023-03-14T05:10:53;12.25;;;3.90;;
25123;SDS011;13104;51.030;4.686;2023-03-14T05:13:19;8.60;;;3.65;;
25123;SDS011;13104;51.030;4.686;2023-03-14T05:15:45;8.73;;;3.60;;
25123;SDS011;13104;51.030;4.686;2023-03-14T05:18:11;13.52;;;4.72;;
25123;SDS011;13104;51.030;4.686;2023-03-14T05:20:38;13.10;;;4.68;;
25123;SDS011;13104;51.030;4.686;2023-03-14T05:23:04;9.43;;;4.53;;
25123;SDS011;13104;51.030;4.686;2023-03-14T05:25:30;16.52;;;4.80;;
25123;SDS011;13104;51.030;4.686;2023-03-14T05:27:56;14.18;;;4.40;;
25123;SDS011;13104;51.030;4.686;2023-03-14T05:30:22;10.10;;;4.85;;
25123;SDS011;13104;51.030;4.686;2023-03-14T05:32:49;10.82;;;5.05;;
25123;SDS011;13104;51.030;4.686;2023-03-14T05:35:15;9.50;;;4.75;;
25123;SDS011;13104;51.030;4.686;2023-03-14T05:37:41;10.20;;;4.72;;
25123;SDS011;13104;51.030;4.686;2023-03-14T05:40:07;12.35;;;5.22;;
25123;SDS011;13104;51.030;4.686;2023-03-14T05:42:33;10.57;;;4.20;;
25123;SDS011;13104;51.030;4.686;2023-03-14T05:45:00;11.32;;;5.28;;
25123;SDS011;13104;51.030;4.686;2023-03-14T05:47:26;9.82;;;4.65;;
25123;SDS011;13104;51.030;4.686;2023-03-14T05:49:52;9.50;;;4.18;;
25123;SDS011;13104;51.030;4.686;2023-03-14T05:52:19;7.18;;;4.25;;
25123;SDS011;13104;51.030;4.686;2023-03-14T05:54:45;10.30;;;4.10;;
25123;SDS011;13104;51.030;4.686;2023-03-14T05:57:11;8.80;;;4.07;;
25123;SDS011;13104;51.030;4.686;2023-03-14T05:59:37;9.55;;;3.90;;
25123;SDS011;13104;51.030;4.686;2023-03-14T06:02:03;10.65;;;3.90;;
25123;SDS011;13104;51.030;4.686;2023-03-14T06:04:29;7.70;;;4.25;;
25123;SDS011;13104;51.030;4.686;2023-03-14T06:06:55;12.88;;;3.78;;
25123;SDS011;13104;51.030;4.686;2023-03-14T06:09:22;7.38;;;3.50;;
25123;SDS011;13104;51.030;4.686;2023-03-14T06:11:48;6.93;;;3.58;;
25123;SDS011;13104;51.030;4.686;2023-03-14T06:14:14;8.55;;;3.58;;
25123;SDS011;13104;51.030;4.686;2023-03-14T06:16:40;8.15;;;3.90;;
25123;SDS011;13104;51.030;4.686;2023-03-14T06:19:06;6.28;;;3.60;;
25123;SDS011;13104;51.030;4.686;2023-03-14T06:21:33;5.18;;;3.10;;
25123;SDS011;13104;51.030;4.686;2023-03-14T06:23:59;7.50;;;3.30;;
25123;SDS011;13104;51.030;4.686;2023-03-14T06:26:25;8.35;;;3.47;;
25123;SDS011;13104;51.030;4.686;2023-03-14T06:28:51;5.78;;;3.30;;
25123;SDS011;13104;51.030;4.686;2023-03-14T06:31:18;6.47;;;3.40;;
25123;SDS011;13104;51.030;4.686;2023-03-14T06:33:45;8.25;;;3.83;;
25123;SDS011;13104;51.030;4.686;2023-03-14T06:36:11;7.20;;;4.00;;
25123;SDS011;13104;51.030;4.686;2023-03-14T06:38:37;6.82;;;3.55;;
25123;SDS011;13104;51.030;4.686;2023-03-14T06:41:04;5.90;;;3.65;;
25123;SDS011;13104;51.030;4.686;2023-03-14T06:43:30;5.38;;;3.88;;
25123;SDS011;13104;51.030;4.686;2023-03-14T06:45:56;5.80;;;3.70;;
25123;SDS011;13104;51.030;4.686;2023-03-14T06:48:22;6.32;;;4.10;;
25123;SDS011;13104;51.030;4.686;2023-03-14T06:50:49;9.35;;;4.22;;
25123;SDS011;13104;51.030;4.686;2023-03-14T06:53:15;8.02;;;4.05;;
25123;SDS011;13104;51.030;4.686;2023-03-14T06:55:41;8.98;;;4.32;;
25123;SDS011;13104;51.030;4.686;2023-03-14T06:58:08;6.72;;;4.18;;
25123;SDS011;13104;51.030;4.686;2023-03-14T07:00:34;6.07;;;4.05;;
25123;SDS011;13104;51.030;4.686;2023-03-14T07:03:00;6.63;;;3.58;;
25123;SDS011;13104;51.030;4.686;2023-03-14T07:05:27;5.05;;;3.33;;
25123;SDS011;13104;51.030;4.686;2023-03-14T07:07:53;4.95;;;1.42;;
25123;SDS011;13104;51.030;4.686;2023-03-14T07:10:20;3.08;;;1.40;;
25123;SDS011;13104;51.030;4.686;2023-03-14T07:12:46;2.60;;;1.42;;
25123;SDS011;13104;51.030;4.686;2023-03-14T07:15:12;1.70;;;1.60;;
25123;SDS011;13104;51.030;4.686;2023-03-14T07:17:38;2.42;;;1.77;;
25123;SDS011;13104;51.030;4.686;2023-03-14T07:20:04;4.30;;;2.50;;
25123;SDS011;13104;51.030;4.686;2023-03-14T07:22:32;5.85;;;3.30;;
25123;SDS011;13104;51.030;4.686;2023-03-14T07:24:58;5.68;;;3.17;;
25123;SDS011;13104;51.030;4.686;2023-03-14T07:27:24;5.57;;;2.50;;
25123;SDS011;13104;51.030;4.686;2023-03-14T07:29:50;4.95;;;2.33;;
25123;SDS011;13104;51.030;4.686;2023-03-14T07:32:16;6.90;;;1.95;;
25123;SDS011;13104;51.030;4.686;2023-03-14T07:34:43;4.63;;;1.65;;
25123;SDS011;13104;51.030;4.686;2023-03-14T07:37:09;6.68;;;1.50;;
25123;SDS011;13104;51.030;4.686;2023-03-14T07:39:35;3.95;;;1.48;;
25123;SDS011;13104;51.030;4.686;2023-03-14T07:42:02;2.58;;;1.20;;
25123;SDS011;13104;51.030;4.686;2023-03-14T07:44:28;4.28;;;1.48;;
25123;SDS011;13104;51.030;4.686;2023-03-14T07:46:54;3.63;;;1.30;;
25123;SDS011;13104;51.030;4.686;2023-03-14T07:49:20;5.70;;;1.70;;
25123;SDS011;13104;51.030;4.686;2023-03-14T07:51:47;6.53;;;1.40;;
25123;SDS011;13104;51.030;4.686;2023-03-14T07:54:13;5.07;;;1.50;;
25123;SDS011;13104;51.030;4.686;2023-03-14T07:56:40;4.50;;;1.75;;
25123;SDS011;13104;51.030;4.686;2023-03-14T07:59:06;7.50;;;1.83;;
25123;SDS011;13104;51.030;4.686;2023-03-14T08:01:32;5.47;;;2.00;;
25123;SDS011;13104;51.030;4.686;2023-03-14T08:03:59;8.27;;;1.63;;
25123;SDS011;13104;51.030;4.686;2023-03-14T08:06:25;7.03;;;2.10;;
25123;SDS011;13104;51.030;4.686;2023-03-14T08:08:51;5.72;;;2.10;;
25123;SDS011;13104;51.030;4.686;2023-03-14T08:11:17;5.40;;;2.00;;
25123;SDS011;13104;51.030;4.686;2023-03-14T08:13:43;6.88;;;2.33;;
25123;SDS011;13104;51.030;4.686;2023-03-14T08:16:18;5.07;;;2.30;;
25123;SDS011;13104;51.030;4.686;2023-03-14T08:18:44;6.28;;;2.10;;
25123;SDS011;13104;51.030;4.686;2023-03-14T08:21:10;8.52;;;2.72;;
25123;SDS011;13104;51.030;4.686;2023-03-14T08:23:37;9.15;;;2.63;;
25123;SDS011;13104;51.030;4.686;2023-03-14T08:26:03;5.55;;;2.20;;
25123;SDS011;13104;51.030;4.686;2023-03-14T08:28:29;5.72;;;1.77;;
25123;SDS011;13104;51.030;4.686;2023-03-14T08:30:58;3.40;;;1.77;;
25123;SDS011;13104;51.030;4.686;2023-03-14T08:33:24;4.40;;;1.95;;
25123;SDS011;13104;51.030;4.686;2023-03-14T08:35:54;7.03;;;1.98;;
25123;SDS011;13104;51.030;4.686;2023-03-14T08:38:20;7.13;;;1.60;;
25123;SDS011;13104;51.030;4.686;2023-03-14T08:40:46;6.70;;;1.98;;
25123;SDS011;13104;51.030;4.686;2023-03-14T08:43:12;4.63;;;1.80;;
25123;SDS011;13104;51.030;4.686;2023-03-14T08:45:38;6.95;;;1.80;;
25123;SDS011;13104;51.030;4.686;2023-03-14T08:48:05;4.82;;;1.60;;
25123;SDS011;13104;51.030;4.686;2023-03-14T08:50:31;6.55;;;1.90;;
25123;SDS011;13104;51.030;4.686;2023-03-14T08:52:57;4.95;;;1.33;;
25123;SDS011;13104;51.030;4.686;2023-03-14T08:55:25;3.90;;;1.20;;
25123;SDS011;13104;51.030;4.686;2023-03-14T08:57:52;5.78;;;1.50;;
25123;SDS011;13104;51.030;4.686;2023-03-14T09:00:19;5.80;;;1.30;;
25123;SDS011;13104;51.030;4.686;2023-03-14T09:02:45;9.93;;;1.60;;
25123;SDS011;13104;51.030;4.686;2023-03-14T09:05:11;4.95;;;1.50;;
25123;SDS011;13104;51.030;4.686;2023-03-14T09:07:38;6.55;;;1.55;;
25123;SDS011;13104;51.030;4.686;2023-03-14T09:10:05;5.43;;;1.60;;
25123;SDS011;13104;51.030;4.686;2023-03-14T09:12:31;4.47;;;1.48;;
25123;SDS011;13104;51.030;4.686;2023-03-14T09:14:58;6.95;;;1.55;;
25123;SDS011;13104;51.030;4.686;2023-03-14T09:17:24;6.35;;;1.35;;
25123;SDS011;13104;51.030;4.686;2023-03-14T09:19:50;2.67;;;1.70;;
25123;SDS011;13104;51.030;4.686;2023-03-14T09:22:17;7.40;;;1.38;;
25123;SDS011;13104;51.030;4.686;2023-03-14T09:24:43;5.68;;;1.60;;
25123;SDS011;13104;51.030;4.686;2023-03-14T09:27:09;10.88;;;1.90;;
25123;SDS011;13104;51.030;4.686;2023-03-14T09:29:35;7.78;;;1.63;;
25123;SDS011;13104;51.030;4.686;2023-03-14T09:32:01;7.07;;;1.65;;
25123;SDS011;13104;51.030;4.686;2023-03-14T09:34:28;9.25;;;1.88;;
25123;SDS011;13104;51.030;4.686;2023-03-14T09:36:54;7.25;;;2.05;;
25123;SDS011;13104;51.030;4.686;2023-03-14T09:39:21;7.63;;;2.55;;
25123;SDS011;13104;51.030;4.686;2023-03-14T09:41:48;6.50;;;2.13;;
25123;SDS011;13104;51.030;4.686;2023-03-14T09:46:43;3.78;;;1.83;;
25123;SDS011;13104;51.030;4.686;2023-03-14T09:49:11;4.53;;;2.00;;
25123;SDS011;13104;51.030;4.686;2023-03-14T09:51:37;6.45;;;1.85;;
25123;SDS011;13104;51.030;4.686;2023-03-14T09:54:03;3.47;;;1.70;;
25123;SDS011;13104;51.030;4.686;2023-03-14T09:56:31;6.18;;;1.80;;
25123;SDS011;13104;51.030;4.686;2023-03-14T09:58:58;6.20;;;1.50;;
25123;SDS011;13104;51.030;4.686;2023-03-14T10:01:28;2.75;;;0.70;;
25123;SDS011;13104;51.030;4.686;2023-03-14T10:03:55;3.50;;;0.80;;
25123;SDS011;13104;51.030;4.686;2023-03-14T10:06:23;2.60;;;1.20;;
25123;SDS011;13104;51.030;4.686;2023-03-14T10:08:49;1.58;;;1.00;;
25123;SDS011;13104;51.030;4.686;2023-03-14T10:11:18;6.05;;;1.70;;
25123;SDS011;13104;51.030;4.686;2023-03-14T10:13:48;1.83;;;1.60;;
25123;SDS011;13104;51.030;4.686;2023-03-14T10:16:15;5.35;;;1.83;;
25123;SDS011;13104;51.030;4.686;2023-03-14T10:18:44;4.28;;;2.50;;
25123;SDS011;13104;51.030;4.686;2023-03-14T10:21:26;5.72;;;2.10;;
25123;SDS011;13104;51.030;4.686;2023-03-14T10:23:53;5.30;;;2.25;;
25123;SDS011;13104;51.030;4.686;2023-03-14T10:26:28;5.20;;;1.98;;
25123;SDS011;13104;51.030;4.686;2023-03-14T10:29:11;5.15;;;2.38;;
25123;SDS011;13104;51.030;4.686;2023-03-14T10:31:51;6.13;;;2.22;;
25123;SDS011;13104;51.030;4.686;2023-03-14T10:34:21;7.32;;;2.03;;
25123;SDS011;13104;51.030;4.686;2023-03-14T10:36:51;3.17;;;2.00;;
25123;SDS011;13104;51.030;4.686;2023-03-14T10:41:48;5.30;;;1.50;;
25123;SDS011;13104;51.030;4.686;2023-03-14T10:44:16;2.97;;;1.80;;
25123;SDS011;13104;51.030;4.686;2023-03-14T10:46:44;4.30;;;1.98;;
25123;SDS011;13104;51.030;4.686;2023-03-14T10:49:16;3.28;;;1.77;;
25123;SDS011;13104;51.030;4.686;2023-03-14T10:51:49;3.85;;;1.80;;
25123;SDS011;13104;51.030;4.686;2023-03-14T10:54:21;3.83;;;1.40;;
25123;SDS011;13104;51.030;4.686;2023-03-14T10:57:00;3.20;;;1.50;;
25123;SDS011;13104;51.030;4.686;2023-03-14T10:59:27;4.43;;;1.90;;
25123;SDS011;13104;51.030;4.686;2023-03-14T11:01:59;7.78;;;2.33;;
25123;SDS011;13104;51.030;4.686;2023-03-14T11:07:03;4.85;;;2.30;;
25123;SDS011;13104;51.030;4.686;2023-03-14T11:12:01;7.18;;;2.53;;
25123;SDS011;13104;51.030;4.686;2023-03-14T11:17:00;8.25;;;2.70;;
25123;SDS011;13104;51.030;4.686;2023-03-14T11:19:32;7.88;;;2.60;;
25123;SDS011;13104;51.030;4.686;2023-03-14T11:24:44;5.28;;;2.75;;
25123;SDS011;13104;51.030;4.686;2023-03-14T11:29:41;7.55;;;2.70;;
25123;SDS011;13104;51.030;4.686;2023-03-14T11:32:12;8.27;;;1.95;;
25123;SDS011;13104;51.030;4.686;2023-03-14T11:34:40;7.55;;;1.60;;
25123;SDS011;13104;51.030;4.686;2023-03-14T11:37:26;6.32;;;1.63;;
25123;SDS011;13104;51.030;4.686;2023-03-14T11:39:56;6.67;;;1.73;;
25123;SDS011;13104;51.030;4.686;2023-03-14T11:42:24;1.70;;;1.52;;
25123;SDS011;13104;51.030;4.686;2023-03-14T11:44:52;2.35;;;1.90;;
25123;SDS011;13104;51.030;4.686;2023-03-14T11:47:24;3.75;;;1.77;;
25123;SDS011;13104;51.030;4.686;2023-03-14T11:50:00;5.40;;;1.90;;
25123;SDS011;13104;51.030;4.686;2023-03-14T11:52:39;4.55;;;1.92;;
25123;SDS011;13104;51.030;4.686;2023-03-14T11:55:10;5.63;;;2.20;;
25123;SDS011;13104;51.030;4.686;2023-03-14T11:57:37;6.88;;;1.90;;
25123;SDS011;13104;51.030;4.686;2023-03-14T12:10:39;11.18;;;2.50;;
25123;SDS011;13104;51.030;4.686;2023-03-14T12:13:10;19.08;;;2.97;;
25123;SDS011;13104;51.030;4.686;2023-03-14T12:15:41;13.30;;;2.35;;
25123;SDS011;13104;51.030;4.686;2023-03-14T12:18:41;20.45;;;3.20;;
25123;SDS011;13104;51.030;4.686;2023-03-14T12:21:04;15.02;;;2.78;;
25123;SDS011;13104;51.030;4.686;2023-03-14T12:24:04;16.75;;;2.90;;
25123;SDS011;13104;51.030;4.686;2023-03-14T12:26:24;15.45;;;2.50;;
25123;SDS011;13104;51.030;4.686;2023-03-14T12:34:02;17.52;;;2.88;;
25123;SDS011;13104;51.030;4.686;2023-03-14T12:41:48;21.50;;;3.33;;
25123;SDS011;13104;51.030;4.686;2023-03-14T12:46:59;16.50;;;3.30;;
25123;SDS011;13104;51.030;4.686;2023-03-14T12:49:29;17.60;;;3.10;;
25123;SDS011;13104;51.030;4.686;2023-03-14T12:51:59;18.85;;;3.17;;
25123;SDS011;13104;51.030;4.686;2023-03-14T12:59:45;15.50;;;2.72;;
25123;SDS011;13104;51.030;4.686;2023-03-14T13:04:49;17.42;;;3.47;;
25123;SDS011;13104;51.030;4.686;2023-03-14T13:10:38;14.50;;;2.83;;
25123;SDS011;13104;51.030;4.686;2023-03-14T13:15:27;13.93;;;2.95;;
25123;SDS011;13104;51.030;4.686;2023-03-14T13:17:54;14.68;;;2.08;;
25123;SDS011;13104;51.030;4.686;2023-03-14T13:22:48;21.25;;;3.15;;
25123;SDS011;13104;51.030;4.686;2023-03-14T13:25:16;21.17;;;2.72;;
25123;SDS011;13104;51.030;4.686;2023-03-14T13:27:43;20.58;;;3.38;;
25123;SDS011;13104;51.030;4.686;2023-03-14T13:30:14;21.23;;;3.05;;
25123;SDS011;13104;51.030;4.686;2023-03-14T13:32:41;19.65;;;2.97;;
25123;SDS011;13104;51.030;4.686;2023-03-14T13:36:09;22.05;;;3.17;;
25123;SDS011;13104;51.030;4.686;2023-03-14T13:40:31;16.33;;;2.97;;
25123;SDS011;13104;51.030;4.686;2023-03-14T13:43:06;16.17;;;2.50;;
25123;SDS011;13104;51.030;4.686;2023-03-14T13:45:41;20.23;;;3.00;;
25123;SDS011;13104;51.030;4.686;2023-03-14T13:48:08;19.23;;;4.20;;
25123;SDS011;13104;51.030;4.686;2023-03-14T13:50:35;18.83;;;3.70;;
25123;SDS011;13104;51.030;4.686;2023-03-14T13:53:01;29.85;;;4.22;;
25123;SDS011;13104;51.030;4.686;2023-03-14T13:55:28;14.27;;;3.10;;
25123;SDS011;13104;51.030;4.686;2023-03-14T13:57:55;21.42;;;3.58;;
25123;SDS011;13104;51.030;4.686;2023-03-14T14:00:25;21.83;;;3.75;;
25123;SDS011;13104;51.030;4.686;2023-03-14T14:02:53;20.88;;;3.30;;
25123;SDS011;13104;51.030;4.686;2023-03-14T14:05:19;23.77;;;4.18;;
25123;SDS011;13104;51.030;4.686;2023-03-14T14:07:46;23.27;;;3.53;;
25123;SDS011;13104;51.030;4.686;2023-03-14T14:10:12;16.95;;;3.00;;
25123;SDS011;13104;51.030;4.686;2023-03-14T14:12:40;23.10;;;3.50;;
25123;SDS011;13104;51.030;4.686;2023-03-14T14:15:10;19.35;;;3.60;;
25123;SDS011;13104;51.030;4.686;2023-03-14T14:17:38;28.52;;;3.22;;
25123;SDS011;13104;51.030;4.686;2023-03-14T14:20:08;9.93;;;2.30;;
25123;SDS011;13104;51.030;4.686;2023-03-14T14:22:38;10.23;;;2.15;;
25123;SDS011;13104;51.030;4.686;2023-03-14T14:25:04;11.88;;;1.92;;
25123;SDS011;13104;51.030;4.686;2023-03-14T14:27:36;8.23;;;1.90;;
25123;SDS011;13104;51.030;4.686;2023-03-14T14:30:22;6.68;;;1.77;;
25123;SDS011;13104;51.030;4.686;2023-03-14T14:32:50;13.75;;;2.08;;
25123;SDS011;13104;51.030;4.686;2023-03-14T14:35:30;9.95;;;2.10;;
25123;SDS011;13104;51.030;4.686;2023-03-14T14:37:57;13.68;;;1.92;;
25123;SDS011;13104;51.030;4.686;2023-03-14T14:40:25;13.35;;;2.15;;
25123;SDS011;13104;51.030;4.686;2023-03-14T14:42:52;17.15;;;2.58;;
25123;SDS011;13104;51.030;4.686;2023-03-14T14:45:19;11.02;;;2.20;;
25123;SDS011;13104;51.030;4.686;2023-03-14T14:50:27;6.90;;;1.60;;
25123;SDS011;13104;51.030;4.686;2023-03-14T14:52:58;12.05;;;1.98;;
25123;SDS011;13104;51.030;4.686;2023-03-14T14:55:28;8.52;;;1.63;;
25123;SDS011;13104;51.030;4.686;2023-03-14T14:57:55;15.82;;;2.45;;
25123;SDS011;13104;51.030;4.686;2023-03-14T15:00:25;9.48;;;1.80;;
25123;SDS011;13104;51.030;4.686;2023-03-14T15:02:53;8.40;;;1.60;;
25123;SDS011;13104;51.030;4.686;2023-03-14T15:05:21;11.68;;;1.95;;
25123;SDS011;13104;51.030;4.686;2023-03-14T15:07:48;11.15;;;2.05;;
25123;SDS011;13104;51.030;4.686;2023-03-14T15:10:15;9.57;;;1.70;;
25123;SDS011;13104;51.030;4.686;2023-03-14T15:12:42;18.40;;;1.98;;
25123;SDS011;13104;51.030;4.686;2023-03-14T15:15:08;14.40;;;2.63;;
25123;SDS011;13104;51.030;4.686;2023-03-14T15:17:35;8.68;;;2.08;;
25123;SDS011;13104;51.030;4.686;2023-03-14T15:20:02;6.45;;;2.10;;
25123;SDS011;13104;51.030;4.686;2023-03-14T15:22:32;7.15;;;1.67;;
25123;SDS011;13104;51.030;4.686;2023-03-14T15:24:58;13.40;;;2.30;;
25123;SDS011;13104;51.030;4.686;2023-03-14T15:27:24;8.55;;;1.70;;
25123;SDS011;13104;51.030;4.686;2023-03-14T15:29:50;10.07;;;2.03;;
25123;SDS011;13104;51.030;4.686;2023-03-14T15:32:17;6.75;;;1.90;;
25123;SDS011;13104;51.030;4.686;2023-03-14T15:34:43;7.82;;;1.67;;
25123;SDS011;13104;51.030;4.686;2023-03-14T15:37:13;8.82;;;1.52;;
25123;SDS011;13104;51.030;4.686;2023-03-14T15:39:41;9.05;;;1.92;;
25123;SDS011;13104;51.030;4.686;2023-03-14T15:42:07;9.50;;;1.55;;
25123;SDS011;13104;51.030;4.686;2023-03-14T15:44:33;12.00;;;2.08;;
25123;SDS011;13104;51.030;4.686;2023-03-14T15:46:59;10.02;;;1.95;;
25123;SDS011;13104;51.030;4.686;2023-03-14T15:49:26;12.30;;;2.15;;
25123;SDS011;13104;51.030;4.686;2023-03-14T15:51:52;10.57;;;2.38;;
25123;SDS011;13104;51.030;4.686;2023-03-14T15:54:18;12.77;;;2.17;;